EDT,Max TemperatureF,Mean TemperatureF,Min TemperatureF,Max Dew PointF,MeanDew PointF,Min DewpointF,Max Humidity, Mean Humidity, Min Humidity, Max Sea Level PressureIn, Mean Sea Level PressureIn, Min Sea Level PressureIn, Max VisibilityMiles, Mean VisibilityMiles, Min VisibilityMiles, Max Wind SpeedMPH, Mean Wind SpeedMPH, Max Gust SpeedMPH,PrecipitationIn, CloudCover, Events, WindDirDegrees
2013-10-1,71,62,55,56,53,50,93,75,49,30.09,30.05,30.01,10,10,6,13,4,21,0.00,5,,257
2013-10-2,73,64,55,61,55,47,87,74,50,30.13,30.06,30.00,10,10,10,17,9,23,0.00,4,,269
2013-10-3,73,60,46,63,52,45,100,84,46,30.18,30.14,30.06,10,5,0,8,1,,0.07,3,Fog-Rain,214
2013-10-4,75,70,64,64,62,61,94,85,62,30.13,30.09,30.04,10,8,2,13,7,16,0.34,6,Rain,272
2013-10-5,75,68,60,64,62,60,100,89,62,30.15,30.10,30.03,10,5,0,23,3,31,0.70,7,Fog-Rain-Thunderstorm,198
2013-10-6,80,70,62,65,62,59,94,82,54,30.06,29.97,29.83,10,6,0,17,5,30,0.55,5,Fog-Rain,172
2013-10-7,70,58,46,61,51,38,94,75,55,30.10,29.82,29.66,10,9,2,21,14,32,0.27,7,Rain,232
2013-10-8,60,52,43,45,41,38,93,73,46,30.39,30.28,30.10,10,10,9,10,6,,0.05,1,Rain,304
2013-10-9,66,52,41,42,37,33,86,60,33,30.43,30.38,30.33,10,10,10,8,3,,0.00,0,,125
2013-10-10,69,54,39,40,32,21,85,52,16,30.31,30.25,30.19,10,10,10,6,1,,0.00,0,,103
2013-10-11,62,56,48,45,38,32,83,57,36,30.19,30.16,30.14,10,10,10,7,3,,0.00,5,Rain,87
2013-10-12,73,59,45,43,38,34,77,51,26,30.25,30.20,30.16,10,10,10,12,3,17,0.01,0,,140
2013-10-13,61,58,54,55,52,38,94,83,47,30.33,30.31,30.23,10,8,2,13,7,20,0.00,7,Rain,164
2013-10-14,55,53,51,52,51,48,94,90,82,30.37,30.33,30.30,10,7,0,9,3,,0.00,8,Fog-Rain,328
2013-10-15,64,57,50,54,51,48,100,86,65,30.31,30.22,30.05,10,6,0,10,3,17,0.37,6,Fog,145
2013-10-16,59,57,55,56,50,45,90,79,63,30.03,29.93,29.85,10,9,3,15,9,24,0.13,7,Rain,199
2013-10-17,61,54,46,52,46,41,94,81,49,29.92,29.82,29.72,10,9,2,16,8,28,0.74,5,Rain,265
2013-10-18,55,50,46,45,39,33,87,70,45,29.98,29.90,29.78,10,10,10,16,11,28,0.04,6,Rain,258
2013-10-19,55,48,41,43,39,36,87,74,53,29.96,29.81,29.69,10,10,5,23,11,30,0.10,6,Rain,230
2013-10-20,53,44,37,37,34,33,87,71,50,30.04,29.92,29.80,10,10,7,14,10,23,0.04,5,Rain,247
2013-10-21,63,53,44,35,32,30,68,48,32,30.06,29.97,29.83,10,10,10,18,10,29,0.00,1,,204
2013-10-22,53,45,37,43,35,25,89,73,50,29.89,29.83,29.78,10,10,9,18,10,28,0.11,6,Rain,263
2013-10-23,44,38,32,34,31,26,93,80,62,29.86,29.77,29.68,10,8,1,20,7,23,0.04,7,Rain-Snow,284
2013-10-24,39,36,32,34,30,27,89,82,65,30.06,29.91,29.79,10,8,0,16,10,24,0.09,7,Fog-Snow,257
2013-10-25,42,37,33,36,32,27,89,84,65,30.24,30.14,30.01,10,10,2,18,8,26,0.02,8,Rain-Snow,267
2013-10-26,45,39,34,29,25,23,70,60,43,30.17,29.96,29.83,10,10,10,21,13,37,0.00,5,Rain,228
2013-10-27,42,38,35,34,32,28,89,77,65,30.11,29.98,29.84,10,10,10,15,9,22,0.02,7,Rain,261
2013-10-28,46,40,34,35,31,25,85,70,62,30.38,30.25,30.11,10,10,10,9,6,,0.00,5,,311
2013-10-29,50,41,32,31,27,26,85,63,44,30.46,30.40,30.32,10,10,10,6,2,,0.00,6,,53
2013-10-30,61,49,37,36,31,27,76,51,31,30.30,30.22,30.14,10,10,10,7,2,,0.00,2,,246
2013-10-31,64,56,50,55,51,37,94,80,59,30.12,29.88,29.51,10,9,3,20,9,36,0.53,7,Rain,189